Time;durP1;ratioP1;P1;durP2;ratioP2;P2;SDS_P1;SDS_P2;PMS_P1;PMS_P2;Temp;Humidity;BMP_temperature;BMP_pressure;BME280_temperature;BME280_humidity;BME280_pressure;Samples;Min_cycle;Max_cycle;Signal;HPM_P1;HPM_P2
2020/12/11 00:01:22;;;;;;;30.08;18.30;;;;;;;2.09;76.43;95980.54;1809527;79;21132;-51
2020/12/11 00:03:50;;;;;;;29.42;18.12;;;;;;;2.23;76.07;95981.62;1750536;80;21567;-51
2020/12/11 00:09:00;;;;;;;30.07;17.77;;;;;;;2.44;75.32;95977.22;1878011;75;23391;-52
2020/12/11 00:11:29;;;;;;;28.77;17.02;;;;;;;2.43;74.96;95976.36;1841539;77;21612;-52
2020/12/11 00:13:59;;;;;;;30.12;18.75;;;;;;;2.42;74.77;95976.44;1837744;77;21247;-52
2020/12/11 00:16:27;;;;;;;27.80;17.45;;;;;;;2.39;74.64;95982.55;1828380;77;20930;-52
2020/12/11 00:18:55;;;;;;;27.55;17.70;;;;;;;2.31;74.42;95980.34;1823416;77;20930;-53
2020/12/11 00:21:23;;;;;;;30.63;18.17;;;;;;;2.25;74.76;95983.65;1804799;77;21119;-52
2020/12/11 00:23:52;;;;;;;29.12;17.77;;;;;;;2.29;74.77;95986.00;1803047;77;21218;-52
2020/12/11 00:26:20;;;;;;;26.23;16.82;;;;;;;2.27;74.72;95985.25;1806840;77;21421;-51
2020/12/11 00:28:47;;;;;;;26.70;16.30;;;;;;;2.21;74.86;95977.84;1834123;77;21072;-52
2020/12/11 00:31:15;;;;;;;30.23;17.23;;;;;;;2.12;74.94;95978.27;1816575;79;20934;-51
2020/12/11 00:33:43;;;;;;;30.08;17.77;;;;;;;1.93;74.91;95975.75;1748932;79;21813;-51
2020/12/11 00:36:12;;;;;;;29.98;19.15;;;;;;;1.75;75.54;95980.80;1781523;79;21180;-53
2020/12/11 00:38:39;;;;;;;28.75;18.80;;;;;;;1.76;75.90;95979.06;1717625;82;21368;-51
2020/12/11 00:41:07;;;;;;;28.10;17.48;;;;;;;1.84;75.95;95976.55;1824277;77;21123;-52
2020/12/11 00:43:35;;;;;;;28.30;17.87;;;;;;;1.93;75.97;95980.87;1790524;77;21148;-52
2020/12/11 00:46:04;;;;;;;27.80;18.20;;;;;;;2.02;75.92;95978.72;1806882;78;21171;-52
2020/12/11 00:48:32;;;;;;;29.07;18.20;;;;;;;2.09;75.64;95977.98;1789072;79;21144;-51
2020/12/11 00:51:00;;;;;;;29.83;18.67;;;;;;;2.16;75.56;95974.22;1807800;79;21211;-51
2020/12/11 00:53:28;;;;;;;30.88;19.65;;;;;;;2.16;75.56;95974.22;1791814;79;21396;-51
2020/12/11 00:55:56;;;;;;;30.27;18.42;;;;;;;2.20;75.32;95978.73;1786502;79;21173;-60
2020/12/11 00:58:24;;;;;;;26.15;15.45;;;;;;;2.21;75.21;95979.13;1800626;79;21106;-51
2020/12/11 01:00:51;;;;;;;31.48;18.82;;;;;;;2.17;74.85;95973.77;1780106;79;21104;-51
2020/12/11 01:03:19;;;;;;;29.80;18.30;;;;;;;2.00;75.08;95966.42;1772591;79;22048;-51
2020/12/11 01:05:47;;;;;;;30.68;18.57;;;;;;;1.93;75.53;95962.96;1803606;79;21267;-51
2020/12/11 01:08:14;;;;;;;30.35;17.40;;;;;;;1.88;75.77;95965.72;1788235;79;21125;-52
2020/12/11 01:10:43;;;;;;;26.70;17.50;;;;;;;1.90;76.11;95966.94;1788333;79;27224;-52
2020/12/11 01:13:12;;;;;;;27.65;17.25;;;;;;;1.92;76.04;95963.84;1763564;80;21107;-52
2020/12/11 01:15:40;;;;;;;30.72;18.00;;;;;;;1.96;76.16;95966.66;1808929;79;22748;-51
2020/12/11 01:18:07;;;;;;;28.02;17.75;;;;;;;2.03;76.09;95963.72;1804811;79;21049;-51
2020/12/11 01:20:35;;;;;;;28.52;17.98;;;;;;;2.13;75.88;95965.41;1783039;79;21074;-52
2020/12/11 01:23:03;;;;;;;29.05;17.92;;;;;;;2.23;75.73;95967.08;1752409;80;21128;-51
2020/12/11 01:25:31;;;;;;;27.20;17.92;;;;;;;2.32;75.48;95968.36;1807375;79;21152;-60
2020/12/11 01:27:58;;;;;;;26.95;17.57;;;;;;;2.42;75.38;95966.19;1797803;79;21373;-52
2020/12/11 01:30:26;;;;;;;27.62;18.07;;;;;;;2.49;75.27;95964.55;1812985;79;21069;-52
2020/12/11 01:32:53;;;;;;;28.25;17.37;;;;;;;2.56;75.11;95962.52;1804290;79;21579;-50
2020/12/11 01:35:21;;;;;;;27.87;18.45;;;;;;;2.62;74.82;95958.85;1806483;79;21113;-50
2020/12/11 01:37:49;;;;;;;25.55;17.12;;;;;;;2.65;74.56;95956.11;1789422;79;21045;-50
2020/12/11 01:40:17;;;;;;;26.00;16.97;;;;;;;2.67;74.27;95951.30;1766058;80;21215;-50
2020/12/11 01:42:44;;;;;;;28.98;18.62;;;;;;;2.67;74.12;95948.74;1800051;79;21580;-52
2020/12/11 01:45:12;;;;;;;27.40;17.98;;;;;;;2.69;74.22;95949.48;1813218;79;21113;-53
2020/12/11 01:47:40;;;;;;;29.10;19.07;;;;;;;2.75;74.25;95945.81;1802773;79;21045;-51
2020/12/11 01:50:08;;;;;;;26.68;17.50;;;;;;;2.81;74.20;95939.54;1787373;79;21049;-52
2020/12/11 01:52:36;;;;;;;25.08;17.57;;;;;;;2.84;74.14;95938.11;1754323;80;21158;-51
2020/12/11 01:55:10;;;;;;;26.82;17.42;;;;;;;2.89;74.13;95943.83;1782561;79;21132;-53
2020/12/11 01:57:59;;;;;;;26.42;16.48;;;;;;;2.92;73.92;95935.98;1802992;79;21470;-51
2020/12/11 02:00:27;;;;;;;29.97;18.27;;;;;;;2.95;73.78;95930.25;1799547;79;21046;-51
2020/12/11 02:03:05;;;;;;;27.32;17.77;;;;;;;2.97;73.64;95939.14;1803680;79;21050;-51
2020/12/11 02:05:32;;;;;;;22.65;15.83;;;;;;;2.98;73.44;95931.84;1786276;79;21375;-52
2020/12/11 02:08:01;;;;;;;27.53;17.37;;;;;;;2.94;73.36;95929.04;1804404;79;21215;-52
2020/12/11 02:10:28;;;;;;;26.60;16.48;;;;;;;2.93;73.29;95928.22;1786744;79;21069;-52
2020/12/11 02:13:07;;;;;;;22.73;15.00;;;;;;;2.93;72.99;95924.84;1810775;78;21061;-53
2020/12/11 02:15:36;;;;;;;24.10;16.52;;;;;;;2.93;72.99;95924.84;1785127;80;21745;-53
2020/12/11 02:18:04;;;;;;;26.30;16.57;;;;;;;2.87;73.32;95924.69;1786314;80;21600;-52
2020/12/11 02:20:32;;;;;;;27.30;16.70;;;;;;;2.85;73.42;95921.84;1794133;79;21593;-52
2020/12/11 02:22:59;;;;;;;27.07;16.50;;;;;;;2.86;73.36;95922.20;1785139;80;21071;-52
2020/12/11 02:25:27;;;;;;;25.15;16.37;;;;;;;2.85;73.31;95918.00;1788538;79;21049;-52
2020/12/11 02:27:54;;;;;;;24.37;15.60;;;;;;;2.82;73.30;95920.25;1809163;79;21128;-52
2020/12/11 02:30:22;;;;;;;26.62;17.05;;;;;;;2.78;73.25;95920.05;1803904;79;22080;-52
2020/12/11 02:32:49;;;;;;;25.55;16.48;;;;;;;2.72;73.41;95921.16;1808296;79;21482;-52
2020/12/11 02:35:18;;;;;;;21.80;14.70;;;;;;;2.71;73.27;95921.23;1790946;79;21076;-55
2020/12/11 02:37:47;;;;;;;;;;;;;;;2.56;73.39;95913.86;1790342;79;21042;-55
2020/12/11 02:40:14;;;;;;;25.00;15.32;;;;;;;2.29;73.78;95917.34;1796323;79;20217;-51
2020/12/11 02:42:42;;;;;;;25.12;15.78;;;;;;;1.96;74.55;95908.63;1801774;79;21364;-51
2020/12/11 02:45:09;;;;;;;24.12;15.60;;;;;;;1.82;75.29;95902.86;1790104;78;21487;-52
2020/12/11 02:47:37;;;;;;;25.00;16.35;;;;;;;1.83;75.73;95902.44;1771371;80;21094;-52
2020/12/11 02:50:05;;;;;;;24.20;15.05;;;;;;;1.89;75.76;95910.27;1799125;79;21144;-52
2020/12/11 02:52:33;;;;;;;22.70;14.50;;;;;;;1.86;75.67;95901.02;1803536;79;21164;-52
2020/12/11 02:55:01;;;;;;;19.57;12.95;;;;;;;1.71;75.93;95907.67;1787739;79;21371;-52
2020/12/11 02:57:29;;;;;;;22.50;14.90;;;;;;;1.68;76.28;95910.38;1795793;79;21072;-52
2020/12/11 02:59:57;;;;;;;22.75;14.70;;;;;;;1.60;76.37;95910.72;1814795;79;21061;-52
2020/12/11 03:02:24;;;;;;;23.10;14.55;;;;;;;1.53;76.75;95910.63;1812095;79;21133;-52
2020/12/11 03:04:52;;;;;;;23.80;15.10;;;;;;;1.45;76.73;95917.36;1800156;79;21145;-52
2020/12/11 03:07:19;;;;;;;22.73;14.00;;;;;;;1.26;77.05;95918.61;1746808;80;23618;-52
2020/12/11 03:09:47;;;;;;;24.72;15.78;;;;;;;1.16;77.49;95923.76;1705419;82;21075;-52
2020/12/11 03:12:16;;;;;;;23.07;14.23;;;;;;;1.10;77.81;95923.59;1734891;81;21169;-52
2020/12/11 03:14:44;;;;;;;21.77;15.08;;;;;;;1.12;78.11;95927.36;1712486;82;21178;-52
2020/12/11 03:17:11;;;;;;;24.72;15.08;;;;;;;1.12;78.16;95922.67;1730464;82;21196;-52
2020/12/11 03:19:39;;;;;;;24.72;15.13;;;;;;;1.08;78.35;95920.25;1720631;81;21174;-52
2020/12/11 03:22:07;;;;;;;23.47;14.58;;;;;;;1.08;78.39;95922.80;1730184;82;21081;-52
2020/12/11 03:24:34;;;;;;;24.37;15.05;;;;;;;1.00;78.45;95922.77;1731272;81;21567;-52
2020/12/11 03:27:02;;;;;;;22.73;13.75;;;;;;;0.96;78.64;95931.47;1736783;81;21109;-53
2020/12/11 03:29:30;;;;;;;23.02;14.50;;;;;;;0.87;78.85;95933.52;1717937;82;21074;-52
2020/12/11 03:31:57;;;;;;;22.45;13.68;;;;;;;0.74;79.20;95931.11;1717292;83;21637;-52
2020/12/11 03:34:25;;;;;;;21.85;14.07;;;;;;;0.61;79.74;95928.66;1745543;82;21157;-51
2020/12/11 03:36:52;;;;;;;21.30;13.35;;;;;;;0.51;79.96;95932.04;1725578;81;21617;-55
2020/12/11 03:39:20;;;;;;;25.40;14.58;;;;;;;0.53;80.27;95931.09;1731455;82;21189;-57
2020/12/11 03:41:52;;;;;;;19.52;13.30;;;;;;;0.63;80.31;95933.28;1722697;82;21066;-51
2020/12/11 03:44:20;;;;;;;22.32;13.45;;;;;;;0.72;80.28;95932.45;1756315;81;21376;-52
2020/12/11 03:46:48;;;;;;;22.82;13.75;;;;;;;0.77;80.30;95924.57;1731976;82;21515;-52
2020/12/11 03:49:15;;;;;;;21.62;13.70;;;;;;;0.85;80.30;95914.86;1727738;83;21070;-52
2020/12/11 03:51:43;;;;;;;21.68;13.30;;;;;;;1.01;80.45;95908.66;1737096;81;21126;-51
2020/12/11 03:54:10;;;;;;;18.95;12.25;;;;;;;1.21;79.96;95906.95;1735673;81;21734;-51
2020/12/11 03:56:38;;;;;;;21.15;13.68;;;;;;;1.42;79.55;95909.82;1737943;81;21960;-52
2020/12/11 03:59:05;;;;;;;20.37;13.28;;;;;;;1.63;79.08;95915.69;1721351;83;21416;-51
2020/12/11 04:01:33;;;;;;;17.12;12.05;;;;;;;1.82;78.29;95915.66;1747726;82;21573;-51
2020/12/11 04:04:01;;;;;;;21.27;12.90;;;;;;;1.81;77.84;95914.02;1708736;82;21169;-51
2020/12/11 04:06:29;;;;;;;19.85;13.10;;;;;;;1.78;77.85;95909.50;1759452;81;21537;-51
2020/12/11 04:08:56;;;;;;;18.42;11.88;;;;;;;1.87;77.75;95912.06;1748058;80;21539;-51
2020/12/11 04:11:24;;;;;;;19.20;12.43;;;;;;;1.99;77.56;95905.93;1770556;79;21097;-51
2020/12/11 04:13:52;;;;;;;18.15;12.10;;;;;;;2.10;76.96;95902.02;1810312;78;21145;-51
2020/12/11 04:16:20;;;;;;;20.50;13.08;;;;;;;2.15;76.73;95897.51;1801597;79;21070;-51
2020/12/11 04:18:48;;;;;;;19.20;11.43;;;;;;;2.21;76.48;95887.80;1800473;79;21089;-51
2020/12/11 04:21:16;;;;;;;16.10;11.10;;;;;;;2.28;75.96;95904.15;1809638;78;22437;-51
2020/12/11 04:23:43;;;;;;;16.40;11.40;;;;;;;2.21;75.76;95908.73;1813303;79;21912;-51
2020/12/11 04:26:11;;;;;;;19.20;11.88;;;;;;;2.07;75.96;95909.38;1812254;79;21132;-52
2020/12/11 04:28:40;;;;;;;17.70;11.97;;;;;;;1.99;76.26;95912.33;1800537;79;21049;-51
2020/12/11 04:31:08;;;;;;;19.30;12.13;;;;;;;1.95;76.30;95918.47;1814492;79;21054;-52
2020/12/11 04:33:35;;;;;;;18.48;12.10;;;;;;;1.90;76.31;95918.33;1811401;79;21367;-51
2020/12/11 04:36:03;;;;;;;19.07;11.80;;;;;;;1.74;76.47;95912.62;1778323;79;21137;-51
2020/12/11 04:38:30;;;;;;;20.68;12.58;;;;;;;1.69;76.84;95907.36;1787378;78;21187;-52
2020/12/11 04:40:59;;;;;;;20.52;13.25;;;;;;;1.67;76.98;95907.42;1733408;79;21060;-54
2020/12/11 04:43:28;;;;;;;20.75;12.60;;;;;;;1.73;77.29;95909.70;1802259;79;21048;-52
2020/12/11 04:45:55;;;;;;;20.68;12.75;;;;;;;1.87;77.20;95909.52;1814223;79;21362;-52
2020/12/11 04:48:23;;;;;;;20.97;14.25;;;;;;;1.97;77.01;95912.86;1810018;79;21140;-51
2020/12/11 04:50:53;;;;;;;18.82;12.05;;;;;;;2.08;76.80;95905.11;1796362;79;21565;-52
2020/12/11 04:53:21;;;;;;;18.17;12.00;;;;;;;2.21;76.51;95906.18;1736206;81;21224;-51
2020/12/11 04:55:49;;;;;;;22.27;14.10;;;;;;;2.29;75.96;95909.20;1777290;79;21070;-51
2020/12/11 04:58:17;;;;;;;20.12;12.85;;;;;;;2.28;75.67;95915.20;1800848;79;21390;-52
2020/12/11 05:00:44;;;;;;;22.75;13.72;;;;;;;2.21;75.37;95915.14;1776292;80;21562;-52
2020/12/11 05:03:15;;;;;;;20.82;13.08;;;;;;;2.01;75.69;95911.80;1776992;79;21110;-52
2020/12/11 05:05:42;;;;;;;21.97;13.43;;;;;;;1.95;76.05;95911.26;1795085;79;21121;-52
2020/12/11 05:08:19;;;;;;;22.48;14.18;;;;;;;1.95;76.37;95904.41;1784796;79;21065;-52
2020/12/11 05:10:47;;;;;;;23.52;13.88;;;;;;;2.06;76.37;95907.75;1769936;80;21448;-51
2020/12/11 05:13:24;;;;;;;21.85;13.88;;;;;;;2.17;76.06;95913.61;1802532;79;21065;-51
2020/12/11 05:16:09;;;;;;;24.50;14.23;;;;;;;2.14;75.75;95913.78;1773032;81;21145;-53
2020/12/11 05:18:37;;;;;;;27.55;15.20;;;;;;;1.98;75.70;95911.12;1781614;79;21049;-52
2020/12/11 05:21:21;;;;;;;22.17;13.60;;;;;;;1.81;76.21;95913.20;1783340;79;21128;-53
2020/12/11 05:24:02;;;;;;;25.17;15.25;;;;;;;1.80;76.51;95917.92;1788397;79;21289;-53
2020/12/11 05:26:33;;;;;;;22.73;14.23;;;;;;;1.77;76.73;95919.34;1810326;79;21100;-52
2020/12/11 05:29:02;;;;;;;24.07;14.95;;;;;;;1.75;76.88;95921.15;1809810;79;21153;-52
2020/12/11 05:31:29;;;;;;;25.25;14.98;;;;;;;1.79;76.97;95918.38;1802638;79;21812;-53
2020/12/11 05:34:09;;;;;;;23.05;13.72;;;;;;;1.86;76.80;95908.69;1808346;79;21100;-52
2020/12/11 05:36:50;;;;;;;23.10;14.78;;;;;;;1.88;76.64;95910.72;1782613;79;21315;-52
2020/12/11 05:39:31;;;;;;;21.62;14.45;;;;;;;1.94;76.65;95913.00;1787549;79;21053;-51
2020/12/11 05:42:01;;;;;;;21.95;13.50;;;;;;;2.09;76.57;95908.88;1771997;79;21121;-52
2020/12/11 05:44:33;;;;;;;24.67;14.68;;;;;;;2.24;76.11;95909.88;1805574;78;21052;-52
2020/12/11 05:47:24;;;;;;;24.75;15.65;;;;;;;2.26;75.88;95908.06;1797869;79;21137;-53
2020/12/11 05:49:52;;;;;;;24.30;14.83;;;;;;;2.33;75.84;95908.13;1784957;79;21417;-53
2020/12/11 05:52:25;;;;;;;24.98;14.65;;;;;;;2.45;75.76;95913.56;1801879;79;21172;-53
2020/12/11 05:54:55;;;;;;;20.17;13.00;;;;;;;2.55;75.59;95910.94;1787525;79;21506;-52
2020/12/11 05:57:24;;;;;;;22.15;14.15;;;;;;;2.67;75.27;95910.78;1801375;79;21112;-52
2020/12/11 05:59:52;;;;;;;26.20;14.67;;;;;;;2.70;75.08;95914.02;1794229;79;21109;-52
2020/12/11 06:02:21;;;;;;;21.35;13.80;;;;;;;2.79;74.88;95915.73;1808470;79;21332;-51
2020/12/11 06:04:48;;;;;;;19.17;12.47;;;;;;;2.86;74.59;95917.07;1795184;79;21903;-51
2020/12/11 06:07:16;;;;;;;19.23;12.63;;;;;;;2.91;74.47;95918.95;1742391;79;21552;-51
2020/12/11 06:09:45;;;;;;;18.37;12.40;;;;;;;2.97;74.40;95918.64;1789453;79;21165;-53
2020/12/11 06:12:12;;;;;;;19.25;13.53;;;;;;;3.02;74.15;95919.23;1793743;79;21121;-52
2020/12/11 06:15:03;;;;;;;19.82;13.03;;;;;;;3.05;73.96;95918.25;1814384;79;21121;-52
2020/12/11 06:17:35;;;;;;;18.15;11.95;;;;;;;3.04;73.76;95916.16;1808931;79;21163;-52
2020/12/11 06:20:03;;;;;;;18.95;11.97;;;;;;;3.00;73.69;95915.11;1812244;79;21117;-52
2020/12/11 06:22:31;;;;;;;16.60;11.25;;;;;;;2.99;73.59;95923.69;1784152;79;21605;-52
2020/12/11 06:25:19;;;;;;;19.17;13.05;;;;;;;2.99;73.52;95928.81;1766356;79;21064;-51
2020/12/11 06:27:47;;;;;;;15.83;10.90;;;;;;;3.01;73.49;95925.28;1713514;81;21307;-52
2020/12/11 06:30:23;;;;;;;;;;;;;;;3.02;73.54;95924.81;1804422;79;21589;-58
2020/12/11 06:32:50;;;;;;;18.10;11.83;;;;;;;3.04;73.26;95934.53;1811374;79;20216;-52
2020/12/11 06:35:18;;;;;;;15.60;10.38;;;;;;;2.91;73.33;95927.48;1800506;79;21057;-51
2020/12/11 06:37:46;;;;;;;15.65;11.00;;;;;;;2.73;73.31;95934.36;1797284;79;21049;-53
2020/12/11 06:40:17;;;;;;;16.32;10.43;;;;;;;2.47;73.86;95930.98;1745592;81;22160;-52
2020/12/11 06:42:45;;;;;;;16.33;10.47;;;;;;;2.27;74.42;95939.17;1745076;81;21121;-52
2020/12/11 06:45:25;;;;;;;14.05;10.48;;;;;;;2.06;75.17;95938.91;1786420;78;21420;-52
2020/12/11 06:47:59;;;;;;;15.68;10.82;;;;;;;1.97;75.85;95943.56;1787486;79;21132;-52
2020/12/11 06:53:11;;;;;;;16.57;10.37;;;;;;;1.82;76.86;95936.13;1869930;76;26698;-52
2020/12/11 06:55:49;;;;;;;16.15;10.25;;;;;;;1.59;77.26;95926.95;1793643;77;21113;-52
2020/12/11 06:58:19;;;;;;;16.70;11.65;;;;;;;1.49;77.69;95926.17;1849623;77;21334;-52
2020/12/11 07:00:53;;;;;;;16.97;10.50;;;;;;;1.50;78.01;95934.20;1799003;79;28244;-52
2020/12/11 07:03:27;;;;;;;15.88;10.82;;;;;;;1.59;78.26;95924.84;1829231;77;21556;-52
2020/12/11 07:05:56;;;;;;;14.28;9.80;;;;;;;1.74;78.20;95925.41;1816442;78;21075;-52
2020/12/11 07:08:24;;;;;;;18.60;10.82;;;;;;;1.81;77.68;95925.53;1816541;78;20876;-52
2020/12/11 07:10:52;;;;;;;19.23;11.57;;;;;;;1.74;77.56;95921.58;1827711;77;21376;-52
2020/12/11 07:13:20;;;;;;;16.33;10.53;;;;;;;1.63;77.72;95921.27;1844272;77;21001;-52
2020/12/11 07:15:58;;;;;;;16.82;10.90;;;;;;;1.63;77.92;95919.53;1847038;77;20955;-52
2020/12/11 07:18:25;;;;;;;15.25;10.90;;;;;;;1.70;78.02;95921.35;1837950;77;21477;-52
2020/12/11 07:20:58;;;;;;;17.23;11.00;;;;;;;1.81;77.94;95920.88;1848155;77;21036;-52
2020/12/11 07:23:26;;;;;;;17.55;11.70;;;;;;;1.93;77.91;95920.28;1849851;77;21319;-51
2020/12/11 07:25:55;;;;;;;17.25;10.68;;;;;;;2.11;77.60;95917.31;1847360;77;21049;-52
2020/12/11 07:28:24;;;;;;;18.42;11.50;;;;;;;2.25;77.31;95919.19;1825629;77;21045;-53
2020/12/11 07:30:52;;;;;;;15.98;10.95;;;;;;;2.43;77.15;95921.77;1845370;77;21517;-53
2020/12/11 07:33:20;;;;;;;16.85;11.38;;;;;;;2.59;76.67;95922.68;1821983;78;21101;-53
2020/12/11 07:35:49;;;;;;;18.10;11.73;;;;;;;2.73;76.16;95926.67;1822123;78;21850;-51
2020/12/11 07:38:19;;;;;;;14.47;10.23;;;;;;;2.82;75.49;95925.38;1844827;77;21085;-51
2020/12/11 07:40:55;;;;;;;15.80;11.10;;;;;;;2.91;75.31;95922.79;1785471;79;21501;-50
2020/12/11 07:43:30;;;;;;;15.87;10.77;;;;;;;3.08;75.04;95927.08;1871247;75;26566;-52
2020/12/11 07:45:59;;;;;;;16.13;10.43;;;;;;;3.14;74.78;95925.45;1818068;78;21117;-52
2020/12/11 07:48:26;;;;;;;15.20;11.05;;;;;;;3.25;74.48;95930.04;1791160;79;21174;-51
2020/12/11 07:51:02;;;;;;;17.07;10.10;;;;;;;3.33;74.04;95930.47;1786726;79;21146;-51
2020/12/11 07:53:29;;;;;;;17.02;11.15;;;;;;;3.34;73.60;95933.42;1808644;79;20976;-51
2020/12/11 07:55:57;;;;;;;12.58;9.20;;;;;;;3.24;73.32;95930.94;1808816;78;21075;-52
2020/12/11 07:58:27;;;;;;;11.93;9.03;;;;;;;3.18;73.26;95933.84;1800888;79;21098;-52
2020/12/11 08:00:55;;;;;;;15.30;9.80;;;;;;;3.07;73.42;95930.07;1776128;80;23543;-52
2020/12/11 08:03:26;;;;;;;21.23;11.28;;;;;;;3.00;73.62;95930.48;1785684;79;21202;-53
2020/12/11 08:05:53;;;;;;;16.00;10.35;;;;;;;2.93;73.73;95928.69;1803242;78;21570;-52
2020/12/11 08:08:25;;;;;;;16.77;10.88;;;;;;;2.82;74.03;95923.27;1808290;79;21066;-51
2020/12/11 08:10:52;;;;;;;18.55;12.50;;;;;;;2.72;74.34;95925.00;1808521;79;21170;-52
2020/12/11 08:13:21;;;;;;;16.97;11.68;;;;;;;2.72;74.57;95926.28;1785370;79;21408;-51
2020/12/11 08:15:50;;;;;;;16.48;11.30;;;;;;;2.71;74.37;95930.20;1776613;80;21075;-52
2020/12/11 08:18:20;;;;;;;23.65;14.40;;;;;;;2.52;74.56;95933.67;1748666;80;21082;-52
2020/12/11 08:20:55;;;;;;;21.73;13.00;;;;;;;2.35;74.96;95929.82;1788130;78;21051;-52
2020/12/11 08:23:38;;;;;;;21.95;13.15;;;;;;;2.18;75.60;95931.45;1808483;79;21154;-52
2020/12/11 08:26:17;;;;;;;27.00;15.45;;;;;;;1.98;76.30;95938.80;1781402;79;21386;-51
2020/12/11 08:28:51;;;;;;;27.37;16.62;;;;;;;1.77;76.81;95930.85;1806834;79;21543;-51
2020/12/11 08:31:26;;;;;;;20.97;13.60;;;;;;;1.62;77.47;95922.97;1787054;79;21497;-52
2020/12/11 08:34:03;;;;;;;26.15;15.60;;;;;;;1.62;77.91;95919.14;1776708;80;21122;-52
2020/12/11 08:36:32;;;;;;;24.63;14.13;;;;;;;1.72;78.12;95925.94;1776641;80;21063;-52
2020/12/11 08:39:12;;;;;;;27.27;16.27;;;;;;;1.86;77.79;95938.11;1776574;80;21257;-52
2020/12/11 08:41:47;;;;;;;25.90;15.53;;;;;;;1.93;77.61;95929.70;1783773;79;21289;-52
2020/12/11 08:44:20;;;;;;;26.97;15.45;;;;;;;2.09;77.54;95936.18;1776614;80;21127;-52
2020/12/11 08:51:58;;;;;;;25.80;16.00;;;;;;;2.78;76.35;95935.84;1872789;75;26929;-53
2020/12/11 08:54:27;;;;;;;25.82;16.35;;;;;;;2.70;75.86;95921.70;1841603;77;20897;-52
2020/12/11 08:56:55;;;;;;;;;;;;;;;2.74;75.82;95922.36;1839769;77;21607;-52
2020/12/11 08:59:23;;;;;;;24.60;15.32;;;;;;;2.88;75.72;95926.35;1779526;79;20212;-52
2020/12/11 09:01:51;;;;;;;24.75;16.15;;;;;;;2.95;75.23;95924.30;1808654;79;20978;-52
2020/12/11 09:04:19;;;;;;;25.75;15.70;;;;;;;3.03;75.10;95913.67;1808520;78;21122;-50
2020/12/11 09:06:47;;;;;;;20.60;13.65;;;;;;;3.19;74.88;95899.59;1808720;78;21043;-54
2020/12/11 09:09:15;;;;;;;25.30;15.93;;;;;;;3.34;74.37;95914.19;1841334;78;21263;-51
2020/12/11 09:11:43;;;;;;;26.27;16.40;;;;;;;3.37;74.21;95879.41;1841412;77;20981;-52
2020/12/11 09:14:11;;;;;;;27.10;16.93;;;;;;;3.44;74.04;95888.89;1841817;77;21122;-52
2020/12/11 09:16:39;;;;;;;25.45;16.37;;;;;;;3.56;73.82;95892.53;1841561;77;21067;-52
2020/12/11 09:19:07;;;;;;;25.80;16.67;;;;;;;3.66;73.29;95888.08;1809747;78;21051;-51
2020/12/11 09:21:34;;;;;;;24.77;15.03;;;;;;;3.67;73.13;95891.03;1808484;78;21304;-52
2020/12/11 09:24:02;;;;;;;25.77;16.55;;;;;;;3.73;72.89;95887.29;1808475;79;21107;-52
2020/12/11 09:26:31;;;;;;;25.43;16.15;;;;;;;3.76;72.86;95887.59;1808609;79;21599;-51
2020/12/11 09:31:49;;;;;;;26.63;16.83;;;;;;;3.65;72.06;95886.44;1910115;74;27497;-51
2020/12/11 09:34:16;;;;;;;28.25;17.30;;;;;;;3.12;73.21;95888.83;1849892;77;21463;-51
2020/12/11 09:36:44;;;;;;;21.95;14.45;;;;;;;2.68;74.25;95891.49;1849106;77;21522;-51
2020/12/11 09:39:12;;;;;;;25.17;16.52;;;;;;;2.46;75.42;95887.88;1819546;77;20976;-52
2020/12/11 09:41:44;;;;;;;26.33;15.28;;;;;;;2.36;75.91;95873.42;1848895;77;20924;-53
2020/12/11 09:46:52;;;;;;;32.05;17.98;;;;;;;2.25;76.63;95878.70;1808235;77;21529;-52
2020/12/11 09:49:23;;;;;;;26.52;16.75;;;;;;;2.01;77.26;95876.43;1787937;79;21578;-52
2020/12/11 09:52:19;;;;;;;31.85;19.05;;;;;;;1.84;77.72;95879.77;1815190;79;20988;-52
2020/12/11 09:54:35;;;;;;;31.93;19.32;;;;;;;1.78;78.30;95872.41;1813630;79;20958;-52
2020/12/11 09:57:04;;;;;;;29.87;18.25;;;;;;;1.90;78.67;95867.16;1822769;77;21098;-52
2020/12/11 09:59:34;;;;;;;30.48;19.15;;;;;;;2.08;78.48;95870.11;1849827;77;21166;-52
2020/12/11 10:02:16;;;;;;;26.05;16.05;;;;;;;2.24;78.31;95880.87;1849839;77;21399;-52
2020/12/11 10:04:39;;;;;;;30.12;18.27;;;;;;;2.38;77.89;95883.16;1849127;77;21075;-52
2020/12/11 10:07:07;;;;;;;30.52;17.92;;;;;;;2.38;77.37;95874.62;1812760;79;21070;-52
2020/12/11 10:09:34;;;;;;;28.65;17.92;;;;;;;2.27;77.52;95871.77;1816440;78;21169;-53
2020/12/11 10:12:03;;;;;;;28.45;17.48;;;;;;;2.16;77.81;95868.00;1816641;77;21134;-52
2020/12/11 10:14:37;;;;;;;28.30;17.87;;;;;;;2.10;78.30;95867.47;1829533;77;21345;-53
2020/12/11 10:17:03;;;;;;;29.55;17.05;;;;;;;2.22;78.47;95874.58;1829585;77;21106;-52
2020/12/11 10:19:31;;;;;;;29.02;17.85;;;;;;;2.15;78.26;95863.78;1816476;79;21079;-51
2020/12/11 10:21:59;;;;;;;25.08;16.15;;;;;;;2.07;78.48;95861.22;1816657;78;21062;-52
2020/12/11 10:24:27;;;;;;;26.60;14.60;;;;;;;2.11;78.71;95863.56;1816498;79;21047;-52
2020/12/11 10:26:54;;;;;;;20.15;13.60;;;;;;;2.17;79.01;95862.42;1830843;77;21805;-53
2020/12/11 10:29:22;;;;;;;24.77;15.80;;;;;;;2.15;79.30;95856.09;1849724;77;21107;-53
2020/12/11 10:31:50;;;;;;;22.80;14.05;;;;;;;2.02;79.42;95853.33;1849619;77;21126;-52
2020/12/11 10:34:19;;;;;;;26.85;16.42;;;;;;;1.96;80.06;95848.50;1850043;77;21083;-52
2020/12/11 10:36:46;;;;;;;21.70;14.55;;;;;;;1.91;80.35;95845.77;1836865;77;21066;-51
2020/12/11 10:39:15;;;;;;;20.92;12.98;;;;;;;1.94;80.76;95854.58;1816443;79;21371;-52
2020/12/11 10:41:43;;;;;;;25.37;16.40;;;;;;;2.03;80.94;95843.91;1817811;77;21102;-52
2020/12/11 10:44:10;;;;;;;21.82;14.55;;;;;;;2.12;80.75;95846.03;1849136;77;21500;-52
2020/12/11 10:46:38;;;;;;;23.12;14.93;;;;;;;2.07;81.05;95830.05;1838294;77;21059;-51
2020/12/11 10:49:06;;;;;;;24.10;13.93;;;;;;;1.93;81.58;95826.90;1815881;78;21042;-53
2020/12/11 10:51:33;;;;;;;20.95;13.10;;;;;;;1.84;82.33;95828.18;1815819;79;21817;-50
2020/12/11 10:54:01;;;;;;;21.65;13.43;;;;;;;1.79;82.96;95830.14;1815886;78;21169;-50
2020/12/11 10:56:28;;;;;;;21.45;13.43;;;;;;;1.76;83.26;95828.15;1822827;77;21063;-50
2020/12/11 10:58:57;;;;;;;21.75;14.30;;;;;;;1.75;83.70;95823.95;1849074;77;21086;-52
2020/12/11 11:01:24;;;;;;;25.00;15.63;;;;;;;1.75;83.90;95822.67;1834874;77;21638;-52
2020/12/11 11:03:52;;;;;;;27.85;16.67;;;;;;;1.70;84.30;95824.17;1844311;77;22758;-51
2020/12/11 11:06:25;;;;;;;23.27;14.38;;;;;;;1.64;84.26;95818.91;1815796;79;21079;-51
2020/12/11 11:11:25;;;;;;;26.35;15.63;;;;;;;1.50;85.24;95821.70;1815812;79;21185;-50
2020/12/11 11:16:49;;;;;;;28.98;17.55;;;;;;;1.42;85.63;95813.95;1849308;77;22323;-52
2020/12/11 11:19:15;;;;;;;26.23;15.90;;;;;;;1.41;85.57;95818.68;1817515;77;21554;-53
2020/12/11 11:24:51;;;;;;;41.10;18.83;;;;;;;1.49;85.64;95820.89;1855374;76;23061;-53
2020/12/11 11:27:04;;;;;;;31.33;17.32;;;;;;;1.54;85.53;95819.40;1818660;77;21055;-51
2020/12/11 11:29:16;;;;;;;26.10;16.17;;;;;;;1.61;85.39;95818.20;1819562;78;21520;-51
2020/12/11 11:31:47;;;;;;;30.83;17.80;;;;;;;1.74;85.16;95811.59;1821939;78;20950;-52
2020/12/11 11:34:15;;;;;;;32.58;18.30;;;;;;;1.79;84.93;95813.94;1761994;80;21570;-52
2020/12/11 11:36:46;;;;;;;29.85;17.37;;;;;;;1.86;84.77;95805.52;1757895;81;21088;-52
2020/12/11 11:39:15;;;;;;;30.43;17.60;;;;;;;1.93;84.55;95807.71;1761657;80;21040;-52
2020/12/11 11:41:45;;;;;;;27.67;16.17;;;;;;;2.00;84.37;95810.80;1758497;80;21227;-52
2020/12/11 11:44:36;;;;;;;44.58;17.87;;;;;;;2.07;84.05;95807.48;1790874;80;28110;-52
2020/12/11 11:46:52;;;;;;;32.60;18.55;;;;;;;2.00;83.92;95809.52;1756797;81;21068;-51
2020/12/11 11:52:25;;;;;;;26.10;14.77;;;;;;;2.19;84.22;95798.75;1872759;75;26926;-51
2020/12/11 11:54:48;;;;;;;29.98;16.35;;;;;;;2.27;83.77;95789.42;1840796;77;21071;-52
2020/12/11 11:57:16;;;;;;;29.05;16.35;;;;;;;2.27;83.34;95790.70;1832910;77;21471;-52
2020/12/11 11:59:43;;;;;;;27.70;16.62;;;;;;;2.17;83.39;95797.16;1779399;79;21114;-52
2020/12/11 12:02:11;;;;;;;29.50;15.58;;;;;;;1.97;83.78;95795.16;1815269;78;21166;-52
2020/12/11 12:04:41;;;;;;;29.45;16.25;;;;;;;1.82;84.44;95799.72;1841603;77;21452;-52